createdAt,value
2019-03-29T00:01:12.455Z,10.30
2019-03-29T00:03:42.697Z,10.30
2019-03-29T00:06:36.400Z,10.40
2019-03-29T00:09:08.637Z,10.30
2019-03-29T00:11:38.933Z,10.20
2019-03-29T00:14:09.272Z,10.00
2019-03-29T00:16:39.439Z,9.90
2019-03-29T00:19:09.713Z,9.70
2019-03-29T00:21:39.897Z,9.60
2019-03-29T00:24:10.203Z,9.50
2019-03-29T00:26:40.296Z,9.40
2019-03-29T00:29:10.695Z,9.30
2019-03-29T00:31:40.930Z,9.30
2019-03-29T00:34:11.275Z,9.20
2019-03-29T00:36:41.433Z,9.10
2019-03-29T00:39:11.644Z,9.00
2019-03-29T00:41:41.827Z,8.90
2019-03-29T00:44:13.103Z,8.90
2019-03-29T00:46:43.206Z,8.90
2019-03-29T00:49:14.312Z,8.80
2019-03-29T00:51:45.152Z,8.80
2019-03-29T00:54:15.903Z,8.70
2019-03-29T00:56:45.945Z,8.70
2019-03-29T00:59:16.325Z,8.60
2019-03-29T01:01:46.479Z,8.50
2019-03-29T01:04:16.622Z,8.40
2019-03-29T01:06:46.820Z,8.40
2019-03-29T01:09:16.991Z,8.30
2019-03-29T01:11:47.102Z,8.30
2019-03-29T01:14:17.417Z,8.20
2019-03-29T01:16:47.518Z,8.20
2019-03-29T01:19:17.584Z,8.20
2019-03-29T01:21:47.738Z,8.20
2019-03-29T01:24:17.966Z,8.00
2019-03-29T01:26:48.039Z,8.10
2019-03-29T01:29:18.433Z,8.00
2019-03-29T01:31:48.491Z,8.00
2019-03-29T01:34:18.817Z,7.90
2019-03-29T01:36:49.050Z,7.90
2019-03-29T01:39:19.324Z,7.90
2019-03-29T01:41:49.492Z,7.90
2019-03-29T01:44:22.405Z,7.80
2019-03-29T01:46:52.593Z,7.70
2019-03-29T01:49:22.852Z,7.70
2019-03-29T01:51:53.932Z,7.70
2019-03-29T01:54:24.194Z,7.60
2019-03-29T01:56:54.344Z,7.60
2019-03-29T01:59:24.460Z,7.60
2019-03-29T02:01:55.071Z,7.50
2019-03-29T02:04:26.137Z,7.40
2019-03-29T02:06:56.328Z,7.30
2019-03-29T02:09:26.594Z,7.30
2019-03-29T02:11:57.636Z,7.30
2019-03-29T02:14:28.222Z,7.30
2019-03-29T02:16:58.364Z,7.30
2019-03-29T02:19:28.750Z,7.30
2019-03-29T02:21:58.937Z,7.30
2019-03-29T02:24:29.223Z,7.20
2019-03-29T02:27:00.207Z,7.20
2019-03-29T02:29:31.190Z,7.20
2019-03-29T02:32:01.405Z,7.10
2019-03-29T02:34:32.095Z,7.10
2019-03-29T02:37:02.693Z,7.10
2019-03-29T02:39:33.332Z,7.10
2019-03-29T02:42:03.540Z,7.00
2019-03-29T02:44:35.343Z,6.90
2019-03-29T02:47:05.501Z,6.80
2019-03-29T02:49:36.458Z,6.80
2019-03-29T02:52:06.670Z,6.80
2019-03-29T02:54:36.907Z,6.80
2019-03-29T02:57:07.038Z,6.70
2019-03-29T02:59:37.259Z,6.70
2019-03-29T03:02:07.379Z,6.70
2019-03-29T03:04:37.563Z,6.60
2019-03-29T03:07:07.765Z,6.50
2019-03-29T03:09:38.019Z,6.50
2019-03-29T03:12:08.376Z,6.50
2019-03-29T03:14:38.685Z,6.50
2019-03-29T03:17:08.874Z,6.40
2019-03-29T03:19:39.158Z,6.40
2019-03-29T03:22:09.356Z,6.40
2019-03-29T03:24:40.168Z,6.40
2019-03-29T03:27:10.485Z,6.40
2019-03-29T03:29:40.698Z,6.40
2019-03-29T03:32:11.047Z,6.40
2019-03-29T03:34:41.541Z,6.30
2019-03-29T03:37:12.005Z,6.40
2019-03-29T03:39:42.218Z,6.30
2019-03-29T03:42:12.550Z,6.30
2019-03-29T03:44:42.715Z,6.30
2019-03-29T03:47:13.054Z,6.30
2019-03-29T03:49:43.183Z,6.30
2019-03-29T03:52:13.533Z,6.20
2019-03-29T03:54:43.830Z,6.20
2019-03-29T03:57:14.461Z,6.10
2019-03-29T03:59:45.573Z,6.10
2019-03-29T04:02:15.853Z,6.10
2019-03-29T04:04:47.074Z,6.10
2019-03-29T04:07:17.291Z,6.10
2019-03-29T04:09:50.089Z,6.10
2019-03-29T04:12:19.504Z,6.10
2019-03-29T04:14:49.647Z,6.00
2019-03-29T04:17:19.718Z,6.00
2019-03-29T04:19:49.879Z,6.10
2019-03-29T04:22:19.953Z,6.00
2019-03-29T04:24:50.046Z,6.00
2019-03-29T04:27:23.136Z,6.00
2019-03-29T04:29:53.310Z,6.00
2019-03-29T04:32:23.411Z,6.00
2019-03-29T04:34:53.735Z,6.00
2019-03-29T04:37:23.876Z,6.00
2019-03-29T04:40:06.830Z,5.90
2019-03-29T04:42:25.862Z,5.80
2019-03-29T04:44:59.651Z,5.80
2019-03-29T04:47:27.937Z,5.80
2019-03-29T04:49:58.142Z,5.80
2019-03-29T04:52:29.740Z,5.80
2019-03-29T04:55:00.016Z,5.70
2019-03-29T04:57:30.401Z,5.70
2019-03-29T05:00:00.767Z,5.70
2019-03-29T05:02:31.241Z,5.60
2019-03-29T05:05:10.255Z,5.60
2019-03-29T05:07:40.452Z,5.60
2019-03-29T05:10:21.013Z,5.60
2019-03-29T05:12:42.854Z,5.60
2019-03-29T05:15:15.707Z,5.50
2019-03-29T05:17:46.009Z,5.40
2019-03-29T05:20:16.238Z,5.30
2019-03-29T05:22:46.577Z,5.30
2019-03-29T05:25:16.852Z,5.30
2019-03-29T05:27:47.174Z,5.40
2019-03-29T05:30:17.358Z,5.40
2019-03-29T05:32:47.479Z,5.50
2019-03-29T05:35:17.578Z,5.50
2019-03-29T05:37:47.638Z,5.50
2019-03-29T05:40:17.740Z,5.60
2019-03-29T05:42:47.814Z,5.80
2019-03-29T05:45:18.029Z,6.00
2019-03-29T05:47:48.129Z,6.30
2019-03-29T05:50:18.175Z,6.50
2019-03-29T05:52:48.295Z,6.60
2019-03-29T05:55:18.777Z,7.10
2019-03-29T05:57:48.883Z,7.50
2019-03-29T06:00:20.357Z,7.90
2019-03-29T06:02:50.374Z,8.30
2019-03-29T06:05:20.455Z,8.80
2019-03-29T06:07:50.586Z,9.00
2019-03-29T06:10:20.772Z,9.30
2019-03-29T06:12:50.882Z,9.50
2019-03-29T06:15:20.989Z,9.00
2019-03-29T06:17:51.117Z,8.50
2019-03-29T06:20:21.181Z,8.10
2019-03-29T06:22:51.271Z,7.80
2019-03-29T06:25:21.338Z,7.50
2019-03-29T06:27:51.383Z,7.30
2019-03-29T06:30:31.169Z,7.30
2019-03-29T06:33:01.886Z,7.30
2019-03-29T06:35:36.908Z,7.20
2019-03-29T06:38:12.068Z,7.10
2019-03-29T06:40:42.330Z,7.20
2019-03-29T06:43:12.414Z,7.30
2019-03-29T06:45:48.238Z,7.40
2019-03-29T06:48:14.390Z,7.40
2019-03-29T06:50:44.455Z,7.50
2019-03-29T06:53:14.493Z,7.50
2019-03-29T06:55:44.681Z,7.60
2019-03-29T06:58:14.908Z,7.70
2019-03-29T07:00:46.679Z,7.80
2019-03-29T07:03:16.808Z,7.80
2019-03-29T07:05:46.957Z,7.80
2019-03-29T07:08:17.174Z,8.00
2019-03-29T07:10:47.255Z,8.10
2019-03-29T07:13:17.377Z,8.20
2019-03-29T07:15:47.435Z,8.30
2019-03-29T07:18:17.586Z,8.40
2019-03-29T07:20:47.602Z,8.60
2019-03-29T07:23:19.135Z,8.70
2019-03-29T07:25:50.603Z,9.00
2019-03-29T07:28:20.927Z,9.20
2019-03-29T07:30:51.068Z,9.50
2019-03-29T07:33:21.213Z,9.40
2019-03-29T07:35:51.426Z,9.60
2019-03-29T07:38:21.539Z,9.70
2019-03-29T07:40:51.728Z,10.00
2019-03-29T07:43:24.014Z,10.10
2019-03-29T07:45:53.626Z,10.10
2019-03-29T07:48:23.676Z,10.00
2019-03-29T07:50:53.803Z,10.10
2019-03-29T07:53:23.850Z,10.10
2019-03-29T07:55:53.964Z,10.20
2019-03-29T07:58:24.135Z,10.30
2019-03-29T08:00:54.295Z,10.40
2019-03-29T08:03:24.463Z,10.60
2019-03-29T08:05:54.636Z,10.70
2019-03-29T08:08:31.854Z,10.70
2019-03-29T08:10:59.872Z,10.80
2019-03-29T08:13:32.406Z,10.90
2019-03-29T08:16:06.491Z,11.00
2019-03-29T08:18:36.812Z,11.20
2019-03-29T08:21:08.582Z,11.20
2019-03-29T08:23:38.620Z,11.30
2019-03-29T08:26:08.730Z,11.40
2019-03-29T08:28:38.814Z,11.40
2019-03-29T08:31:08.851Z,11.40
2019-03-29T08:33:38.906Z,11.50
2019-03-29T08:36:08.951Z,11.50
2019-03-29T08:38:38.971Z,11.70
2019-03-29T08:41:09.042Z,11.70
2019-03-29T08:43:39.094Z,11.80
2019-03-29T08:46:09.178Z,11.80
2019-03-29T08:48:39.213Z,11.90
2019-03-29T08:51:09.396Z,12.00
2019-03-29T08:53:39.543Z,12.10
2019-03-29T08:56:09.601Z,12.30
2019-03-29T08:58:39.640Z,12.30
2019-03-29T09:01:09.737Z,12.30
2019-03-29T09:03:39.775Z,12.40
2019-03-29T09:06:09.801Z,12.50
2019-03-29T09:08:39.818Z,12.60
2019-03-29T09:11:09.806Z,12.70
2019-03-29T09:13:40.022Z,12.80
2019-03-29T09:16:10.208Z,12.90
2019-03-29T09:18:40.303Z,12.90
2019-03-29T09:21:10.289Z,12.80
2019-03-29T09:23:40.334Z,13.00
2019-03-29T09:26:10.446Z,13.30
2019-03-29T09:28:40.505Z,13.50
2019-03-29T09:31:10.611Z,13.60
2019-03-29T09:33:40.707Z,13.60
2019-03-29T09:36:10.767Z,13.70
2019-03-29T09:38:43.607Z,13.70
2019-03-29T09:41:12.606Z,13.80
2019-03-29T09:43:42.683Z,13.70
2019-03-29T09:46:12.728Z,13.60
2019-03-29T09:48:42.838Z,13.70
2019-03-29T09:51:12.984Z,13.80
2019-03-29T09:53:43.517Z,13.60
2019-03-29T09:56:13.589Z,13.60
2019-03-29T09:58:45.190Z,13.70
2019-03-29T10:01:15.359Z,13.70
2019-03-29T10:03:45.450Z,13.80
2019-03-29T10:06:15.598Z,13.90
2019-03-29T10:08:45.609Z,14.00
2019-03-29T10:11:16.264Z,14.20
2019-03-29T10:13:46.372Z,14.20
2019-03-29T10:16:16.413Z,14.30
2019-03-29T10:18:46.444Z,14.50
2019-03-29T10:21:17.467Z,14.50
2019-03-29T10:23:47.766Z,14.60
2019-03-29T10:26:17.779Z,14.70
2019-03-29T10:28:48.080Z,14.40
2019-03-29T10:31:31.661Z,14.30
2019-03-29T10:33:49.950Z,14.60
2019-03-29T10:36:20.007Z,14.70
2019-03-29T10:38:50.028Z,14.90
2019-03-29T10:41:22.768Z,15.00
2019-03-29T10:43:51.827Z,15.00
2019-03-29T10:46:22.597Z,15.10
2019-03-29T10:48:52.683Z,15.00
2019-03-29T10:51:22.713Z,14.80
2019-03-29T10:54:11.258Z,14.80
2019-03-29T10:56:41.439Z,14.90
2019-03-29T10:59:11.561Z,15.10
2019-03-29T11:01:41.811Z,15.30
2019-03-29T11:04:11.857Z,15.50
2019-03-29T11:06:47.852Z,15.50
2019-03-29T11:09:18.036Z,15.20
2019-03-29T11:11:48.267Z,15.30
2019-03-29T11:14:18.400Z,15.40
2019-03-29T11:16:48.535Z,15.70
2019-03-29T11:19:18.601Z,15.60
2019-03-29T11:21:49.579Z,15.50
2019-03-29T11:24:19.660Z,15.60
2019-03-29T11:26:49.760Z,15.70
2019-03-29T11:29:19.807Z,15.60
2019-03-29T11:31:49.896Z,15.80
2019-03-29T11:34:21.080Z,15.80
2019-03-29T11:36:52.718Z,15.80
2019-03-29T11:39:27.333Z,15.90
2019-03-29T11:41:56.374Z,15.90
2019-03-29T11:51:20.060Z,15.50
2019-03-29T11:53:51.107Z,15.60
2019-03-29T11:56:21.641Z,15.60
2019-03-29T11:59:13.443Z,15.50
2019-03-29T12:01:43.447Z,15.60
2019-03-29T12:04:13.637Z,15.70
2019-03-29T12:06:43.840Z,15.90
2019-03-29T12:09:13.984Z,16.00
2019-03-29T12:11:44.051Z,16.10
2019-03-29T12:14:17.409Z,16.20
2019-03-29T12:16:47.566Z,16.20
2019-03-29T12:19:17.751Z,16.20
2019-03-29T12:21:47.929Z,15.90
2019-03-29T12:24:17.976Z,16.00
2019-03-29T12:26:48.121Z,16.10
2019-03-29T12:29:18.289Z,15.90
2019-03-29T12:32:11.495Z,16.00
2019-03-29T12:35:20.391Z,16.00
2019-03-29T12:38:17.466Z,16.00
2019-03-29T12:44:52.249Z,16.00
2019-03-29T12:47:30.355Z,16.10
2019-03-29T12:50:00.403Z,16.20
2019-03-29T12:52:30.492Z,16.20
2019-03-29T12:55:00.615Z,16.30
2019-03-29T12:57:31.789Z,16.40
2019-03-29T13:00:02.382Z,16.50
2019-03-29T13:02:34.557Z,16.50
2019-03-29T13:05:04.594Z,16.70
2019-03-29T13:07:34.973Z,16.60
2019-03-29T13:10:05.770Z,16.70
2019-03-29T13:12:36.014Z,16.60
2019-03-29T13:15:06.670Z,16.50
2019-03-29T13:17:36.890Z,16.60
2019-03-29T13:20:07.418Z,16.60
2019-03-29T13:22:37.556Z,16.70
2019-03-29T13:25:07.919Z,16.80
2019-03-29T13:27:37.970Z,16.80
2019-03-29T13:30:09.639Z,16.60
2019-03-29T13:32:40.035Z,16.50
2019-03-29T13:35:10.201Z,16.30
2019-03-29T13:37:40.319Z,16.50
2019-03-29T13:40:10.779Z,16.60
2019-03-29T13:42:40.942Z,16.70
2019-03-29T13:45:11.334Z,17.00
2019-03-29T13:47:41.537Z,16.90
2019-03-29T13:50:11.876Z,16.90
2019-03-29T13:52:42.017Z,16.90
2019-03-29T13:55:12.570Z,16.70
2019-03-29T13:57:42.630Z,16.50
2019-03-29T14:00:13.553Z,16.60
2019-03-29T14:02:43.627Z,16.80
2019-03-29T14:05:13.697Z,16.90
2019-03-29T14:07:43.787Z,17.00
2019-03-29T14:10:14.806Z,17.10
2019-03-29T14:12:44.969Z,17.20
2019-03-29T14:15:15.288Z,17.30
2019-03-29T14:17:45.529Z,17.30
2019-03-29T14:20:21.634Z,17.10
2019-03-29T14:22:51.939Z,17.00
2019-03-29T14:25:22.101Z,17.00
2019-03-29T14:27:52.257Z,17.10
2019-03-29T14:30:22.449Z,17.20
2019-03-29T14:32:52.491Z,17.20
2019-03-29T14:35:22.595Z,17.30
2019-03-29T14:37:52.752Z,17.20
2019-03-29T14:40:23.013Z,17.20
2019-03-29T14:42:53.061Z,17.20
2019-03-29T14:45:23.228Z,17.10
2019-03-29T14:47:53.355Z,17.20
2019-03-29T14:50:23.571Z,17.20
2019-03-29T14:52:53.699Z,17.00
2019-03-29T14:55:23.858Z,17.00
2019-03-29T14:57:54.030Z,16.90
2019-03-29T15:00:38.267Z,16.90
2019-03-29T15:03:08.423Z,17.10
2019-03-29T15:05:38.527Z,17.10
2019-03-29T15:08:08.624Z,17.10
2019-03-29T15:10:38.843Z,17.10
2019-03-29T15:13:08.858Z,17.10
2019-03-29T15:15:39.032Z,17.10
2019-03-29T15:18:09.161Z,17.00
2019-03-29T15:20:52.503Z,17.00
2019-03-29T15:23:11.115Z,17.00
2019-03-29T15:25:41.156Z,17.00
2019-03-29T15:28:11.235Z,17.00
2019-03-29T15:30:41.283Z,17.00
2019-03-29T15:33:11.414Z,17.10
2019-03-29T15:35:41.437Z,17.10
2019-03-29T15:38:11.565Z,17.10
2019-03-29T15:40:41.687Z,17.00
2019-03-29T15:43:11.787Z,17.00
2019-03-29T15:45:41.944Z,17.00
2019-03-29T15:48:12.059Z,16.90
2019-03-29T15:50:42.092Z,16.80
2019-03-29T15:53:12.612Z,16.90
2019-03-29T15:55:44.638Z,16.80
2019-03-29T15:58:14.680Z,16.70
2019-03-29T16:00:44.816Z,16.70
2019-03-29T16:03:14.979Z,16.70
2019-03-29T16:05:48.229Z,16.70
2019-03-29T16:08:16.718Z,16.70
2019-03-29T16:10:46.763Z,16.60
2019-03-29T16:13:16.794Z,16.50
2019-03-29T16:15:46.851Z,16.50
2019-03-29T16:18:17.015Z,16.50
2019-03-29T16:20:47.047Z,16.50
2019-03-29T16:23:17.120Z,16.50
2019-03-29T16:25:47.176Z,16.40
2019-03-29T16:28:17.311Z,16.40
2019-03-29T16:30:47.424Z,16.30
2019-03-29T16:33:17.515Z,16.30
2019-03-29T16:35:47.678Z,16.20
2019-03-29T16:38:17.790Z,16.20
2019-03-29T16:40:48.242Z,16.30
2019-03-29T16:43:18.321Z,16.30
2019-03-29T16:45:52.417Z,16.20
2019-03-29T16:48:22.507Z,16.10
2019-03-29T16:50:52.746Z,16.00
2019-03-29T16:53:22.832Z,16.00
2019-03-29T16:55:52.908Z,15.90
2019-03-29T16:58:23.331Z,15.80
2019-03-29T17:00:53.519Z,15.80
2019-03-29T17:03:23.569Z,15.70
2019-03-29T17:05:53.657Z,15.70
2019-03-29T17:08:23.858Z,15.70
2019-03-29T17:10:54.058Z,15.80
2019-03-29T17:13:24.198Z,15.70
2019-03-29T17:16:01.977Z,15.60
2019-03-29T17:18:29.514Z,15.50
2019-03-29T17:21:00.188Z,15.30
2019-03-29T17:23:30.521Z,15.40
2019-03-29T17:26:00.720Z,15.30
2019-03-29T17:28:31.820Z,15.30
2019-03-29T17:31:04.672Z,15.30
2019-03-29T17:33:34.891Z,15.30
2019-03-29T17:36:05.028Z,15.10
2019-03-29T17:38:35.064Z,15.00
2019-03-29T17:41:05.120Z,15.00
2019-03-29T17:43:35.175Z,15.00
2019-03-29T17:46:16.101Z,14.90
2019-03-29T17:48:37.109Z,14.80
2019-03-29T17:51:07.274Z,14.60
2019-03-29T17:53:38.325Z,14.60
2019-03-29T17:56:08.425Z,14.40
2019-03-29T17:58:38.449Z,14.30
2019-03-29T18:01:08.483Z,14.20
2019-03-29T18:03:40.338Z,14.20
2019-03-29T18:06:10.499Z,14.20
2019-03-29T18:08:40.614Z,14.20
2019-03-29T18:11:10.890Z,14.10
2019-03-29T18:13:41.253Z,14.10
2019-03-29T18:16:11.346Z,14.00
2019-03-29T18:18:41.684Z,13.90
2019-03-29T18:21:11.809Z,13.90
2019-03-29T18:23:41.825Z,13.70
2019-03-29T18:26:12.004Z,13.80
2019-03-29T18:28:42.124Z,13.70
2019-03-29T18:31:12.221Z,13.80
2019-03-29T18:33:42.901Z,13.70
2019-03-29T18:36:13.017Z,13.60
2019-03-29T18:38:46.096Z,13.40
2019-03-29T18:41:16.262Z,13.30
2019-03-29T18:43:46.289Z,13.20
2019-03-29T18:46:16.489Z,13.00
2019-03-29T18:48:46.770Z,13.00
2019-03-29T18:51:17.873Z,12.90
2019-03-29T18:53:48.020Z,12.80
2019-03-29T18:56:21.398Z,12.70
2019-03-29T18:58:51.651Z,12.80
2019-03-29T19:01:22.806Z,12.90
2019-03-29T19:03:53.126Z,13.00
2019-03-29T19:06:23.412Z,13.00
2019-03-29T19:08:53.447Z,13.00
2019-03-29T19:11:23.576Z,12.90
2019-03-29T19:13:53.575Z,12.70
2019-03-29T19:16:23.718Z,12.70
2019-03-29T19:18:53.776Z,12.50
2019-03-29T19:21:25.690Z,12.50
2019-03-29T19:23:55.850Z,12.50
2019-03-29T19:26:25.984Z,12.40
2019-03-29T19:28:56.161Z,12.30
2019-03-29T19:31:26.264Z,12.20
2019-03-29T19:33:56.362Z,12.20
2019-03-29T19:36:27.703Z,12.10
2019-03-29T19:38:58.624Z,12.00
2019-03-29T19:41:29.368Z,12.00
2019-03-29T19:44:05.079Z,12.20
2019-03-29T19:46:37.849Z,12.30
2019-03-29T19:49:08.067Z,12.40
2019-03-29T19:51:38.170Z,12.40
2019-03-29T19:54:08.362Z,12.40
2019-03-29T19:56:38.482Z,12.40
2019-03-29T19:59:08.588Z,12.40
2019-03-29T20:01:38.856Z,12.30
2019-03-29T20:04:09.735Z,12.10
2019-03-29T20:06:40.035Z,12.10
2019-03-29T20:09:10.451Z,12.00
2019-03-29T20:11:40.552Z,11.90
2019-03-29T20:14:10.724Z,11.90
2019-03-29T20:16:40.912Z,11.90
2019-03-29T20:19:10.995Z,11.90
2019-03-29T20:21:41.010Z,11.90
2019-03-29T20:24:12.174Z,11.90
2019-03-29T20:26:43.619Z,11.80
2019-03-29T20:29:13.697Z,11.80
2019-03-29T20:31:43.745Z,11.80
2019-03-29T20:34:13.795Z,11.70
2019-03-29T20:36:43.935Z,11.70
2019-03-29T20:39:14.008Z,11.60
2019-03-29T20:41:44.163Z,11.70
2019-03-29T20:44:14.245Z,11.60
2019-03-29T20:46:44.299Z,11.60
2019-03-29T20:49:14.320Z,11.50
2019-03-29T20:51:44.907Z,11.40
2019-03-29T20:54:15.548Z,11.30
2019-03-29T20:56:45.737Z,11.20
2019-03-29T20:59:15.827Z,11.20
2019-03-29T21:01:45.934Z,11.20
2019-03-29T21:04:16.023Z,11.10
2019-03-29T21:06:46.169Z,11.10
2019-03-29T21:09:16.332Z,11.20
2019-03-29T21:11:46.453Z,11.30
2019-03-29T21:14:16.678Z,11.20
2019-03-29T21:16:46.881Z,11.20
2019-03-29T21:19:16.978Z,11.10
2019-03-29T21:21:47.108Z,11.10
2019-03-29T21:24:18.202Z,11.10
2019-03-29T21:26:48.457Z,11.00
2019-03-29T21:29:18.582Z,11.00
2019-03-29T21:31:48.636Z,10.90
2019-03-29T21:34:18.774Z,10.90
2019-03-29T21:36:48.825Z,10.80
2019-03-29T21:39:18.942Z,10.80
2019-03-29T21:41:48.950Z,10.80
2019-03-29T21:44:18.981Z,10.90
2019-03-29T21:46:49.359Z,10.80
2019-03-29T21:49:19.746Z,10.80
2019-03-29T21:51:55.085Z,10.70
2019-03-29T21:54:25.117Z,10.70
2019-03-29T21:56:55.114Z,10.60
2019-03-29T21:59:25.316Z,10.60
2019-03-29T22:01:55.700Z,10.60
2019-03-29T22:04:25.808Z,10.50
2019-03-29T22:06:55.857Z,10.40
2019-03-29T22:09:36.402Z,10.30
2019-03-29T22:11:57.669Z,10.30
2019-03-29T22:14:27.874Z,10.20
2019-03-29T22:16:58.394Z,10.10
2019-03-29T22:19:28.491Z,10.10
2019-03-29T22:21:58.633Z,10.00
2019-03-29T22:24:28.637Z,9.90
2019-03-29T22:26:58.706Z,9.80
2019-03-29T22:29:28.720Z,9.70
2019-03-29T22:31:58.857Z,9.60
2019-03-29T22:34:28.963Z,9.60
2019-03-29T22:36:58.993Z,9.50
2019-03-29T22:39:29.213Z,9.40
2019-03-29T22:41:59.378Z,9.40
2019-03-29T22:44:29.417Z,9.40
2019-03-29T22:46:59.532Z,9.30
2019-03-29T22:49:29.588Z,9.30
2019-03-29T22:52:01.061Z,9.20
2019-03-29T22:54:31.145Z,9.30
2019-03-29T22:57:01.311Z,9.20
2019-03-29T22:59:31.379Z,9.20
2019-03-29T23:02:01.387Z,9.10
2019-03-29T23:04:31.945Z,9.10
2019-03-29T23:07:02.083Z,9.10
2019-03-29T23:09:32.096Z,9.00
2019-03-29T23:12:02.154Z,8.90
2019-03-29T23:14:32.245Z,8.90
2019-03-29T23:17:02.414Z,8.90
2019-03-29T23:19:32.489Z,8.80
2019-03-29T23:22:02.542Z,8.80
2019-03-29T23:24:33.018Z,8.80
2019-03-29T23:27:03.192Z,8.70
2019-03-29T23:29:33.288Z,8.70
2019-03-29T23:32:03.430Z,8.70
2019-03-29T23:34:33.536Z,8.60
2019-03-29T23:37:03.550Z,8.50
2019-03-29T23:39:33.557Z,8.50
2019-03-29T23:42:03.558Z,8.40
2019-03-29T23:44:33.619Z,8.40
2019-03-29T23:47:03.740Z,8.30
2019-03-29T23:49:33.753Z,8.30
2019-03-29T23:52:04.301Z,8.30
2019-03-29T23:54:34.398Z,8.20
2019-03-29T23:57:04.476Z,8.20
2019-03-29T23:59:34.507Z,8.20
